首页
METAR-TAF:

METAR-TAF

机场 :

Gombe Lawanti International Airport

貢貝, 尼日利亚

纬度: 10-18-19N, 经度: 10-54-31E, 海拔: 505米

METAR: 丢失

时间: 22:32 (21:32 UTC)

预报

该预报发布于4小时和32分钟前的17:00 UTC
预报有效从23日的 18点(UTC)到 24日的 24点(UTC)
风速7节,风向南转西南
能见度10公里或以上
少量云层高于1200英尺
短暂存在
从 23日的 20点(UTC)到 23日的 24点(UTC)
多云层高于1100英尺
少量云层高于1900英尺, 积雨云.
雷暴,

TAF: DNGO 231700Z 2318/2424 20007KT 9999 FEW012 TEMPO 2320/2324 TS BKN011 FEW019CB

超过4000个机场的气象观测和天气预报(METAR&TAF报告)。

可查询的气象台以黄色和红色小点在地图上表示。

将鼠标移到小点上方,可查看气象台名称。

然后点击查看天气观测和预报。

如需切换地图:点击带黑十字的绿色按钮放大地图;点击带横线的绿色按钮缩小地图;或者点击绿色箭头查看邻近地区的地图。


METAR-TAF: